Impacts METAR Board
IDs:

KCOT - Cotulla/LaSalle Cnty, TX, US

Updated at: 1300 UTC 13 Dec 2019
Potential Impact None Slight Moderate High
Time 13/01Z 13/02Z 13/03Z 13/04Z 13/05Z 13/06Z 13/07Z 13/08Z 13/09Z 13/10Z 13/11Z 13/12Z 13/13Z
Temp58 53 52 49 47 47 47 44 44 43 41 40 40
Dewpt40 40 40 40 39 40 41 40 40 42 38 38 40
Altim30.10 30.10 30.10 30.10 30.10 30.08 30.06 30.04 30.03 30.02 29.99 30.01 30.00
VIS10 10 10 10 10 10 10 10 10 10 10 10 10
CIG-- -- -- -- -- -- -- -- -- -- -- -- --
CoverCLRCLRCLRCLRCLRCLRCLRCLRCLRCLRCLRCLRCLR
FltCatVFRVFRVFRVFRVFRVFRVFRVFRVFRVFRVFRVFRVFR
WX--------------------------
WDir70909003100000003600
WSpd3 4 3 0 3 0 0 0 0 0 0 4 0
WGst-- -- -- -- -- -- -- -- -- -- -- -- --
Raw hourly METARs
KCOT 130053Z AUTO 07003KT 10SM CLR 14/04 A3010 RMK AO2 SLP192 T01440044
KCOT 130153Z AUTO 09004KT 10SM CLR 12/04 A3010 RMK AO2 SLP191 T01170044
KCOT 130253Z AUTO 09003KT 10SM CLR 11/04 A3010 RMK AO2 SLP191 T01110044 50000
KCOT 130353Z AUTO 00000KT 10SM CLR 09/04 A3010 RMK AO2 SLP191 T00940044
KCOT 130453Z AUTO 31003KT 10SM CLR 08/04 A3010 RMK AO2 SLP191 T00830039
KCOT 130553Z AUTO 00000KT 10SM CLR 08/04 A3008 RMK AO2 SLP184 T00830044 10161 20072 401940011 58006
KCOT 130653Z AUTO 00000KT 10SM CLR 08/05 A3006 RMK AO2 SLP177 T00830050
KCOT 130753Z AUTO 00000KT 10SM CLR 07/04 A3004 RMK AO2 SLP170 T00670044
KCOT 130853Z AUTO 00000KT 10SM CLR 07/04 A3003 RMK AO2 SLP167 T00670044 56016
KCOT 130953Z AUTO 00000KT 10SM CLR 06/06 A3002 RMK AO2 SLP162 T00610056
KCOT 131053Z AUTO 00000KT 10SM CLR 05/03 A2999 RMK AO2 SLP153 T00500033
KCOT 131153Z AUTO 36004KT 10SM CLR 04/03 A3001 RMK AO2 SLP159 T00440033 10083 20039 55009
KCOT 131253Z AUTO 00000KT 10SM CLR 04/04 A3000 RMK AO2 SLP157 T00440044



Page loaded:  13:47 UTC  |   05:47 AM Pacific  |   06:47 AM Mountain  |   07:47 AM Central  |   08:47 AM Eastern

 

ADVISORIES

FORECASTS

FORECASTS

OBSERVATIONS

USER TOOLS

ABOUT US